sensor_id;sensor_type;location;lat;lon;timestamp;P1;durP1;ratioP1;P2;durP2;ratioP2
27213;SDS011;14723;55.814;37.460;2022-11-14T00:01:53;0.55;;;0.40;;
27213;SDS011;14723;55.814;37.460;2022-11-14T00:05:17;0.55;;;0.40;;
27213;SDS011;14723;55.814;37.460;2022-11-14T00:08:41;3.40;;;0.40;;
27213;SDS011;14723;55.814;37.460;2022-11-14T00:12:05;1.42;;;0.28;;
27213;SDS011;14723;55.814;37.460;2022-11-14T00:15:31;2.05;;;0.50;;
27213;SDS011;14723;55.814;37.460;2022-11-14T00:18:55;0.70;;;0.32;;
27213;SDS011;14723;55.814;37.460;2022-11-14T00:22:19;0.47;;;0.30;;
27213;SDS011;14723;55.814;37.460;2022-11-14T00:25:43;1.73;;;0.82;;
27213;SDS011;14723;55.814;37.460;2022-11-14T00:29:09;2.15;;;0.40;;
27213;SDS011;14723;55.814;37.460;2022-11-14T00:32:35;0.80;;;0.55;;
27213;SDS011;14723;55.814;37.460;2022-11-14T00:35:58;1.48;;;0.73;;
27213;SDS011;14723;55.814;37.460;2022-11-14T00:39:22;0.82;;;0.70;;
27213;SDS011;14723;55.814;37.460;2022-11-14T00:42:46;1.08;;;0.40;;
27213;SDS011;14723;55.814;37.460;2022-11-14T00:46:10;1.02;;;0.38;;
27213;SDS011;14723;55.814;37.460;2022-11-14T00:49:36;0.98;;;0.30;;
27213;SDS011;14723;55.814;37.460;2022-11-14T00:53:00;0.70;;;0.28;;
27213;SDS011;14723;55.814;37.460;2022-11-14T00:56:24;0.90;;;0.30;;
27213;SDS011;14723;55.814;37.460;2022-11-14T00:59:48;1.00;;;0.38;;
27213;SDS011;14723;55.814;37.460;2022-11-14T01:03:15;1.20;;;0.40;;
27213;SDS011;14723;55.814;37.460;2022-11-14T01:06:41;0.70;;;0.30;;
27213;SDS011;14723;55.814;37.460;2022-11-14T01:10:06;1.20;;;0.22;;
27213;SDS011;14723;55.814;37.460;2022-11-14T01:13:30;0.77;;;0.30;;
27213;SDS011;14723;55.814;37.460;2022-11-14T01:16:54;1.35;;;0.38;;
27213;SDS011;14723;55.814;37.460;2022-11-14T01:20:18;1.55;;;0.30;;
27213;SDS011;14723;55.814;37.460;2022-11-14T01:23:45;1.83;;;0.32;;
27213;SDS011;14723;55.814;37.460;2022-11-14T01:27:08;2.53;;;0.32;;
27213;SDS011;14723;55.814;37.460;2022-11-14T01:30:32;1.17;;;0.40;;
27213;SDS011;14723;55.814;37.460;2022-11-14T01:33:56;0.95;;;0.40;;
27213;SDS011;14723;55.814;37.460;2022-11-14T01:37:20;0.57;;;0.30;;
27213;SDS011;14723;55.814;37.460;2022-11-14T01:40:47;0.20;;;0.20;;
27213;SDS011;14723;55.814;37.460;2022-11-14T01:44:11;0.30;;;0.30;;
27213;SDS011;14723;55.814;37.460;2022-11-14T01:47:34;0.30;;;0.30;;
27213;SDS011;14723;55.814;37.460;2022-11-14T01:50:59;0.90;;;0.28;;
27213;SDS011;14723;55.814;37.460;2022-11-14T01:54:25;1.17;;;0.20;;
27213;SDS011;14723;55.814;37.460;2022-11-14T01:57:52;2.50;;;0.70;;
27213;SDS011;14723;55.814;37.460;2022-11-14T02:01:15;0.90;;;0.40;;
27213;SDS011;14723;55.814;37.460;2022-11-14T02:04:40;0.57;;;0.40;;
27213;SDS011;14723;55.814;37.460;2022-11-14T02:08:05;0.32;;;0.25;;
27213;SDS011;14723;55.814;37.460;2022-11-14T02:11:31;0.73;;;0.30;;
27213;SDS011;14723;55.814;37.460;2022-11-14T02:14:59;1.83;;;0.40;;
27213;SDS011;14723;55.814;37.460;2022-11-14T02:18:23;0.85;;;0.40;;
27213;SDS011;14723;55.814;37.460;2022-11-14T02:21:50;0.85;;;0.40;;
27213;SDS011;14723;55.814;37.460;2022-11-14T02:25:15;3.25;;;0.38;;
27213;SDS011;14723;55.814;37.460;2022-11-14T02:28:39;0.63;;;0.57;;
27213;SDS011;14723;55.814;37.460;2022-11-14T02:32:03;2.40;;;0.30;;
27213;SDS011;14723;55.814;37.460;2022-11-14T02:35:30;0.63;;;0.32;;
27213;SDS011;14723;55.814;37.460;2022-11-14T02:38:56;2.15;;;0.50;;
27213;SDS011;14723;55.814;37.460;2022-11-14T02:42:20;3.13;;;0.90;;
27213;SDS011;14723;55.814;37.460;2022-11-14T02:45:44;1.23;;;0.40;;
27213;SDS011;14723;55.814;37.460;2022-11-14T02:49:08;2.50;;;0.50;;
27213;SDS011;14723;55.814;37.460;2022-11-14T02:52:31;1.75;;;0.40;;
27213;SDS011;14723;55.814;37.460;2022-11-14T02:55:58;1.52;;;1.00;;
27213;SDS011;14723;55.814;37.460;2022-11-14T02:59:22;2.67;;;0.40;;
27213;SDS011;14723;55.814;37.460;2022-11-14T03:02:46;3.42;;;0.88;;
27213;SDS011;14723;55.814;37.460;2022-11-14T03:06:09;1.10;;;0.45;;
27213;SDS011;14723;55.814;37.460;2022-11-14T03:09:32;2.28;;;0.57;;
27213;SDS011;14723;55.814;37.460;2022-11-14T03:12:59;1.55;;;0.43;;
27213;SDS011;14723;55.814;37.460;2022-11-14T03:16:23;1.83;;;0.90;;
27213;SDS011;14723;55.814;37.460;2022-11-14T03:19:47;2.13;;;0.70;;
27213;SDS011;14723;55.814;37.460;2022-11-14T03:23:10;1.67;;;0.47;;
27213;SDS011;14723;55.814;37.460;2022-11-14T03:26:34;3.65;;;0.93;;
27213;SDS011;14723;55.814;37.460;2022-11-14T03:30:00;1.52;;;0.57;;
27213;SDS011;14723;55.814;37.460;2022-11-14T03:33:25;4.97;;;0.80;;
27213;SDS011;14723;55.814;37.460;2022-11-14T03:36:49;2.90;;;0.60;;
27213;SDS011;14723;55.814;37.460;2022-11-14T03:40:13;3.17;;;0.75;;
27213;SDS011;14723;55.814;37.460;2022-11-14T03:43:37;1.70;;;0.50;;
27213;SDS011;14723;55.814;37.460;2022-11-14T03:47:03;3.42;;;0.90;;
27213;SDS011;14723;55.814;37.460;2022-11-14T03:50:27;5.10;;;1.10;;
27213;SDS011;14723;55.814;37.460;2022-11-14T03:53:51;2.35;;;0.40;;
27213;SDS011;14723;55.814;37.460;2022-11-14T03:57:15;3.22;;;0.50;;
27213;SDS011;14723;55.814;37.460;2022-11-14T04:00:38;0.75;;;0.35;;
27213;SDS011;14723;55.814;37.460;2022-11-14T04:04:04;3.33;;;0.68;;
27213;SDS011;14723;55.814;37.460;2022-11-14T04:07:28;2.53;;;0.95;;
27213;SDS011;14723;55.814;37.460;2022-11-14T04:10:52;7.30;;;1.13;;
27213;SDS011;14723;55.814;37.460;2022-11-14T04:14:16;2.40;;;0.50;;
27213;SDS011;14723;55.814;37.460;2022-11-14T04:17:40;3.45;;;0.77;;
27213;SDS011;14723;55.814;37.460;2022-11-14T04:21:06;2.60;;;0.65;;
27213;SDS011;14723;55.814;37.460;2022-11-14T04:24:30;4.50;;;0.73;;
27213;SDS011;14723;55.814;37.460;2022-11-14T04:27:53;5.50;;;0.90;;
27213;SDS011;14723;55.814;37.460;2022-11-14T04:31:17;9.95;;;1.67;;
27213;SDS011;14723;55.814;37.460;2022-11-14T04:34:41;2.15;;;0.77;;
27213;SDS011;14723;55.814;37.460;2022-11-14T04:38:08;6.32;;;1.42;;
27213;SDS011;14723;55.814;37.460;2022-11-14T04:41:31;5.75;;;0.95;;
27213;SDS011;14723;55.814;37.460;2022-11-14T04:44:56;4.15;;;0.90;;
27213;SDS011;14723;55.814;37.460;2022-11-14T04:48:19;5.53;;;0.85;;
27213;SDS011;14723;55.814;37.460;2022-11-14T04:51:43;3.83;;;0.75;;
27213;SDS011;14723;55.814;37.460;2022-11-14T04:55:10;3.03;;;0.80;;
27213;SDS011;14723;55.814;37.460;2022-11-14T04:58:34;1.73;;;0.98;;
27213;SDS011;14723;55.814;37.460;2022-11-14T05:01:58;3.22;;;0.73;;
27213;SDS011;14723;55.814;37.460;2022-11-14T05:05:21;6.05;;;1.00;;
27213;SDS011;14723;55.814;37.460;2022-11-14T05:08:45;5.15;;;0.95;;
27213;SDS011;14723;55.814;37.460;2022-11-14T05:12:11;5.00;;;2.85;;
27213;SDS011;14723;55.814;37.460;2022-11-14T05:15:35;6.03;;;0.82;;
27213;SDS011;14723;55.814;37.460;2022-11-14T05:18:59;6.03;;;1.05;;
27213;SDS011;14723;55.814;37.460;2022-11-14T05:22:22;4.78;;;1.08;;
27213;SDS011;14723;55.814;37.460;2022-11-14T05:25:46;5.63;;;1.08;;
27213;SDS011;14723;55.814;37.460;2022-11-14T05:29:20;4.68;;;1.33;;
27213;SDS011;14723;55.814;37.460;2022-11-14T05:32:44;6.65;;;1.33;;
27213;SDS011;14723;55.814;37.460;2022-11-14T05:36:09;4.07;;;0.95;;
27213;SDS011;14723;55.814;37.460;2022-11-14T05:39:32;6.05;;;1.83;;
27213;SDS011;14723;55.814;37.460;2022-11-14T05:42:56;9.80;;;1.30;;
27213;SDS011;14723;55.814;37.460;2022-11-14T05:46:22;5.68;;;1.20;;
27213;SDS011;14723;55.814;37.460;2022-11-14T05:49:46;4.95;;;1.35;;
27213;SDS011;14723;55.814;37.460;2022-11-14T05:53:10;4.97;;;1.15;;
27213;SDS011;14723;55.814;37.460;2022-11-14T05:56:33;5.25;;;1.23;;
27213;SDS011;14723;55.814;37.460;2022-11-14T05:59:57;4.72;;;1.35;;
27213;SDS011;14723;55.814;37.460;2022-11-14T06:03:24;4.55;;;1.48;;
27213;SDS011;14723;55.814;37.460;2022-11-14T06:06:48;8.30;;;1.80;;
27213;SDS011;14723;55.814;37.460;2022-11-14T06:10:12;5.25;;;1.50;;
27213;SDS011;14723;55.814;37.460;2022-11-14T06:13:36;7.95;;;1.00;;
27213;SDS011;14723;55.814;37.460;2022-11-14T06:16:59;7.50;;;1.23;;
27213;SDS011;14723;55.814;37.460;2022-11-14T06:20:26;8.82;;;1.27;;
27213;SDS011;14723;55.814;37.460;2022-11-14T06:23:49;5.07;;;1.20;;
27213;SDS011;14723;55.814;37.460;2022-11-14T06:27:13;7.82;;;2.08;;
27213;SDS011;14723;55.814;37.460;2022-11-14T06:30:37;9.90;;;1.70;;
27213;SDS011;14723;55.814;37.460;2022-11-14T06:34:01;6.38;;;1.50;;
27213;SDS011;14723;55.814;37.460;2022-11-14T06:37:29;7.93;;;1.30;;
27213;SDS011;14723;55.814;37.460;2022-11-14T06:40:59;3.05;;;1.88;;
27213;SDS011;14723;55.814;37.460;2022-11-14T06:44:23;5.85;;;1.40;;
27213;SDS011;14723;55.814;37.460;2022-11-14T06:47:50;7.65;;;1.10;;
27213;SDS011;14723;55.814;37.460;2022-11-14T06:51:14;9.15;;;1.60;;
27213;SDS011;14723;55.814;37.460;2022-11-14T06:54:41;4.72;;;1.40;;
27213;SDS011;14723;55.814;37.460;2022-11-14T06:58:05;4.32;;;1.08;;
27213;SDS011;14723;55.814;37.460;2022-11-14T07:01:29;4.43;;;1.02;;
27213;SDS011;14723;55.814;37.460;2022-11-14T07:04:53;6.72;;;1.23;;
27213;SDS011;14723;55.814;37.460;2022-11-14T07:08:16;7.25;;;1.30;;
27213;SDS011;14723;55.814;37.460;2022-11-14T07:11:43;10.23;;;1.30;;
27213;SDS011;14723;55.814;37.460;2022-11-14T07:15:07;3.47;;;1.10;;
27213;SDS011;14723;55.814;37.460;2022-11-14T07:18:31;7.75;;;1.25;;
27213;SDS011;14723;55.814;37.460;2022-11-14T07:21:56;4.85;;;1.40;;
27213;SDS011;14723;55.814;37.460;2022-11-14T07:25:20;5.45;;;1.25;;
27213;SDS011;14723;55.814;37.460;2022-11-14T07:28:47;6.60;;;1.13;;
27213;SDS011;14723;55.814;37.460;2022-11-14T07:32:16;6.07;;;1.60;;
27213;SDS011;14723;55.814;37.460;2022-11-14T07:35:39;3.22;;;1.20;;
27213;SDS011;14723;55.814;37.460;2022-11-14T07:39:03;2.03;;;0.88;;
27213;SDS011;14723;55.814;37.460;2022-11-14T07:42:27;6.85;;;1.05;;
27213;SDS011;14723;55.814;37.460;2022-11-14T07:45:55;7.22;;;1.05;;
27213;SDS011;14723;55.814;37.460;2022-11-14T07:49:21;5.53;;;1.20;;
27213;SDS011;14723;55.814;37.460;2022-11-14T07:52:48;7.03;;;1.17;;
27213;SDS011;14723;55.814;37.460;2022-11-14T07:56:12;6.25;;;1.20;;
27213;SDS011;14723;55.814;37.460;2022-11-14T07:59:36;8.25;;;1.38;;
27213;SDS011;14723;55.814;37.460;2022-11-14T08:03:03;5.57;;;1.83;;
27213;SDS011;14723;55.814;37.460;2022-11-14T08:06:28;3.13;;;1.60;;
27213;SDS011;14723;55.814;37.460;2022-11-14T08:09:52;4.15;;;1.27;;
27213;SDS011;14723;55.814;37.460;2022-11-14T08:13:17;5.72;;;1.60;;
27213;SDS011;14723;55.814;37.460;2022-11-14T08:16:56;4.18;;;1.17;;
27213;SDS011;14723;55.814;37.460;2022-11-14T08:20:22;7.07;;;1.02;;
27213;SDS011;14723;55.814;37.460;2022-11-14T08:23:46;5.07;;;1.25;;
27213;SDS011;14723;55.814;37.460;2022-11-14T08:27:10;5.20;;;1.55;;
27213;SDS011;14723;55.814;37.460;2022-11-14T08:30:34;6.75;;;1.08;;
27213;SDS011;14723;55.814;37.460;2022-11-14T08:33:58;7.72;;;1.40;;
27213;SDS011;14723;55.814;37.460;2022-11-14T08:37:24;3.75;;;0.90;;
27213;SDS011;14723;55.814;37.460;2022-11-14T08:40:48;7.20;;;1.50;;
27213;SDS011;14723;55.814;37.460;2022-11-14T08:44:12;7.18;;;2.55;;
27213;SDS011;14723;55.814;37.460;2022-11-14T08:47:35;9.80;;;2.47;;
27213;SDS011;14723;55.814;37.460;2022-11-14T08:51:01;6.90;;;1.60;;
27213;SDS011;14723;55.814;37.460;2022-11-14T08:54:28;11.23;;;1.65;;
27213;SDS011;14723;55.814;37.460;2022-11-14T08:57:52;11.30;;;1.55;;
27213;SDS011;14723;55.814;37.460;2022-11-14T09:01:16;5.53;;;1.48;;
27213;SDS011;14723;55.814;37.460;2022-11-14T09:04:40;8.25;;;1.67;;
27213;SDS011;14723;55.814;37.460;2022-11-14T09:08:04;6.53;;;1.17;;
27213;SDS011;14723;55.814;37.460;2022-11-14T09:11:31;3.92;;;1.23;;
27213;SDS011;14723;55.814;37.460;2022-11-14T09:14:55;5.68;;;1.40;;
27213;SDS011;14723;55.814;37.460;2022-11-14T09:18:18;6.13;;;1.90;;
27213;SDS011;14723;55.814;37.460;2022-11-14T09:21:42;4.50;;;1.40;;
27213;SDS011;14723;55.814;37.460;2022-11-14T09:25:06;7.20;;;1.23;;
27213;SDS011;14723;55.814;37.460;2022-11-14T09:28:33;7.32;;;1.10;;
27213;SDS011;14723;55.814;37.460;2022-11-14T09:31:57;4.45;;;1.10;;
27213;SDS011;14723;55.814;37.460;2022-11-14T09:35:21;7.43;;;1.70;;
27213;SDS011;14723;55.814;37.460;2022-11-14T09:38:44;7.75;;;2.03;;
27213;SDS011;14723;55.814;37.460;2022-11-14T09:42:13;4.97;;;1.20;;
27213;SDS011;14723;55.814;37.460;2022-11-14T09:45:42;6.97;;;1.55;;
27213;SDS011;14723;55.814;37.460;2022-11-14T09:49:10;7.03;;;1.35;;
27213;SDS011;14723;55.814;37.460;2022-11-14T09:52:37;5.90;;;1.53;;
27213;SDS011;14723;55.814;37.460;2022-11-14T09:56:04;6.85;;;1.85;;
27213;SDS011;14723;55.814;37.460;2022-11-14T09:59:31;4.75;;;1.75;;
27213;SDS011;14723;55.814;37.460;2022-11-14T10:03:00;4.57;;;1.50;;
27213;SDS011;14723;55.814;37.460;2022-11-14T10:06:28;9.73;;;1.80;;
27213;SDS011;14723;55.814;37.460;2022-11-14T10:09:57;4.43;;;1.13;;
27213;SDS011;14723;55.814;37.460;2022-11-14T10:13:30;7.43;;;1.65;;
27213;SDS011;14723;55.814;37.460;2022-11-14T10:17:02;4.57;;;1.40;;
27213;SDS011;14723;55.814;37.460;2022-11-14T10:20:33;4.95;;;1.45;;
27213;SDS011;14723;55.814;37.460;2022-11-14T10:24:02;7.85;;;1.95;;
27213;SDS011;14723;55.814;37.460;2022-11-14T10:30:54;9.45;;;1.52;;
27213;SDS011;14723;55.814;37.460;2022-11-14T10:34:24;8.57;;;1.25;;
27213;SDS011;14723;55.814;37.460;2022-11-14T10:37:54;7.95;;;2.03;;
27213;SDS011;14723;55.814;37.460;2022-11-14T10:41:20;5.85;;;1.67;;
27213;SDS011;14723;55.814;37.460;2022-11-14T10:45:06;12.23;;;1.95;;
27213;SDS011;14723;55.814;37.460;2022-11-14T10:48:33;7.05;;;1.98;;
27213;SDS011;14723;55.814;37.460;2022-11-14T10:51:58;8.88;;;2.15;;
27213;SDS011;14723;55.814;37.460;2022-11-14T10:55:27;4.75;;;1.50;;
27213;SDS011;14723;55.814;37.460;2022-11-14T10:59:11;9.77;;;2.22;;
27213;SDS011;14723;55.814;37.460;2022-11-14T11:02:45;6.32;;;1.70;;
27213;SDS011;14723;55.814;37.460;2022-11-14T11:06:21;13.63;;;2.25;;
27213;SDS011;14723;55.814;37.460;2022-11-14T11:09:47;8.30;;;1.58;;
27213;SDS011;14723;55.814;37.460;2022-11-14T11:13:36;7.22;;;1.42;;
27213;SDS011;14723;55.814;37.460;2022-11-14T11:24:37;5.75;;;1.05;;
27213;SDS011;14723;55.814;37.460;2022-11-14T11:28:05;7.55;;;2.13;;
27213;SDS011;14723;55.814;37.460;2022-11-14T11:35:12;5.07;;;1.00;;
27213;SDS011;14723;55.814;37.460;2022-11-14T11:38:36;5.10;;;1.83;;
27213;SDS011;14723;55.814;37.460;2022-11-14T11:42:01;5.75;;;1.08;;
27213;SDS011;14723;55.814;37.460;2022-11-14T11:45:30;9.15;;;1.23;;
27213;SDS011;14723;55.814;37.460;2022-11-14T11:48:58;4.40;;;1.00;;
27213;SDS011;14723;55.814;37.460;2022-11-14T11:52:26;6.95;;;1.50;;
27213;SDS011;14723;55.814;37.460;2022-11-14T11:55:54;4.22;;;1.35;;
27213;SDS011;14723;55.814;37.460;2022-11-14T11:59:25;4.25;;;1.20;;
27213;SDS011;14723;55.814;37.460;2022-11-14T12:02:52;8.70;;;1.77;;
27213;SDS011;14723;55.814;37.460;2022-11-14T12:06:17;7.55;;;2.00;;
27213;SDS011;14723;55.814;37.460;2022-11-14T12:09:46;8.57;;;1.60;;
27213;SDS011;14723;55.814;37.460;2022-11-14T12:17:26;6.97;;;1.73;;
27213;SDS011;14723;55.814;37.460;2022-11-14T12:21:01;4.68;;;1.35;;
27213;SDS011;14723;55.814;37.460;2022-11-14T12:24:36;4.28;;;1.17;;
27213;SDS011;14723;55.814;37.460;2022-11-14T12:28:09;5.65;;;1.00;;
27213;SDS011;14723;55.814;37.460;2022-11-14T12:31:35;6.78;;;1.27;;
27213;SDS011;14723;55.814;37.460;2022-11-14T12:35:02;6.30;;;1.23;;
27213;SDS011;14723;55.814;37.460;2022-11-14T12:38:28;7.20;;;1.60;;
27213;SDS011;14723;55.814;37.460;2022-11-14T12:41:59;7.85;;;2.10;;
27213;SDS011;14723;55.814;37.460;2022-11-14T12:49:05;9.32;;;1.73;;
27213;SDS011;14723;55.814;37.460;2022-11-14T12:52:55;11.32;;;2.22;;
27213;SDS011;14723;55.814;37.460;2022-11-14T13:00:13;5.55;;;2.13;;
27213;SDS011;14723;55.814;37.460;2022-11-14T13:03:44;6.20;;;1.45;;
27213;SDS011;14723;55.814;37.460;2022-11-14T13:07:18;7.10;;;1.38;;
27213;SDS011;14723;55.814;37.460;2022-11-14T13:10:53;11.73;;;2.38;;
27213;SDS011;14723;55.814;37.460;2022-11-14T13:14:17;6.70;;;2.42;;
27213;SDS011;14723;55.814;37.460;2022-11-14T13:18:07;7.68;;;1.80;;
27213;SDS011;14723;55.814;37.460;2022-11-14T13:25:41;16.10;;;1.80;;
27213;SDS011;14723;55.814;37.460;2022-11-14T13:29:05;7.53;;;1.50;;
27213;SDS011;14723;55.814;37.460;2022-11-14T13:36:08;6.03;;;1.50;;
27213;SDS011;14723;55.814;37.460;2022-11-14T13:39:33;14.70;;;2.00;;
27213;SDS011;14723;55.814;37.460;2022-11-14T13:43:08;6.55;;;2.13;;
27213;SDS011;14723;55.814;37.460;2022-11-14T13:46:41;12.48;;;2.70;;
27213;SDS011;14723;55.814;37.460;2022-11-14T13:50:09;11.07;;;3.10;;
27213;SDS011;14723;55.814;37.460;2022-11-14T13:53:34;6.93;;;3.35;;
27213;SDS011;14723;55.814;37.460;2022-11-14T13:57:02;15.85;;;3.33;;
27213;SDS011;14723;55.814;37.460;2022-11-14T14:00:39;10.52;;;2.58;;
27213;SDS011;14723;55.814;37.460;2022-11-14T14:04:13;17.45;;;2.17;;
27213;SDS011;14723;55.814;37.460;2022-11-14T14:07:49;9.32;;;1.65;;
27213;SDS011;14723;55.814;37.460;2022-11-14T14:11:20;7.43;;;2.00;;
27213;SDS011;14723;55.814;37.460;2022-11-14T14:15:01;9.27;;;3.33;;
27213;SDS011;14723;55.814;37.460;2022-11-14T14:18:30;12.77;;;2.08;;
27213;SDS011;14723;55.814;37.460;2022-11-14T14:22:00;12.48;;;1.67;;
27213;SDS011;14723;55.814;37.460;2022-11-14T14:25:26;10.32;;;2.40;;
27213;SDS011;14723;55.814;37.460;2022-11-14T14:32:18;12.30;;;2.38;;
27213;SDS011;14723;55.814;37.460;2022-11-14T14:35:50;9.55;;;2.63;;
27213;SDS011;14723;55.814;37.460;2022-11-14T14:39:16;13.85;;;2.33;;
27213;SDS011;14723;55.814;37.460;2022-11-14T14:42:44;11.60;;;2.40;;
27213;SDS011;14723;55.814;37.460;2022-11-14T14:46:08;14.48;;;3.05;;
27213;SDS011;14723;55.814;37.460;2022-11-14T14:49:33;7.22;;;2.47;;
27213;SDS011;14723;55.814;37.460;2022-11-14T14:53:01;16.08;;;2.17;;
27213;SDS011;14723;55.814;37.460;2022-11-14T14:56:26;12.48;;;3.50;;
27213;SDS011;14723;55.814;37.460;2022-11-14T14:59:57;6.47;;;1.83;;
27213;SDS011;14723;55.814;37.460;2022-11-14T15:03:21;7.68;;;2.03;;
27213;SDS011;14723;55.814;37.460;2022-11-14T15:06:46;5.88;;;1.88;;
27213;SDS011;14723;55.814;37.460;2022-11-14T15:10:19;8.60;;;1.90;;
27213;SDS011;14723;55.814;37.460;2022-11-14T15:13:44;7.00;;;1.98;;
27213;SDS011;14723;55.814;37.460;2022-11-14T15:17:08;6.47;;;2.13;;
27213;SDS011;14723;55.814;37.460;2022-11-14T15:20:33;8.43;;;2.65;;
27213;SDS011;14723;55.814;37.460;2022-11-14T15:23:57;12.27;;;2.45;;
27213;SDS011;14723;55.814;37.460;2022-11-14T15:27:24;21.48;;;7.95;;
27213;SDS011;14723;55.814;37.460;2022-11-14T15:30:55;7.82;;;2.50;;
27213;SDS011;14723;55.814;37.460;2022-11-14T15:34:22;11.63;;;2.60;;
27213;SDS011;14723;55.814;37.460;2022-11-14T15:37:58;7.15;;;2.22;;
27213;SDS011;14723;55.814;37.460;2022-11-14T15:41:43;10.38;;;2.35;;
27213;SDS011;14723;55.814;37.460;2022-11-14T15:48:48;9.13;;;1.90;;
27213;SDS011;14723;55.814;37.460;2022-11-14T15:52:16;10.52;;;3.70;;
27213;SDS011;14723;55.814;37.460;2022-11-14T15:55:41;5.00;;;1.88;;
27213;SDS011;14723;55.814;37.460;2022-11-14T15:59:09;8.47;;;1.43;;
27213;SDS011;14723;55.814;37.460;2022-11-14T16:02:33;5.20;;;1.67;;
27213;SDS011;14723;55.814;37.460;2022-11-14T16:06:07;12.27;;;2.05;;
27213;SDS011;14723;55.814;37.460;2022-11-14T16:09:32;9.65;;;1.88;;
27213;SDS011;14723;55.814;37.460;2022-11-14T16:12:55;9.52;;;1.60;;
27213;SDS011;14723;55.814;37.460;2022-11-14T16:16:19;6.03;;;1.90;;
27213;SDS011;14723;55.814;37.460;2022-11-14T16:19:43;5.40;;;1.67;;
27213;SDS011;14723;55.814;37.460;2022-11-14T16:23:11;10.13;;;1.80;;
27213;SDS011;14723;55.814;37.460;2022-11-14T16:26:36;5.47;;;1.65;;
27213;SDS011;14723;55.814;37.460;2022-11-14T16:30:00;6.15;;;1.70;;
27213;SDS011;14723;55.814;37.460;2022-11-14T16:33:24;7.45;;;1.58;;
27213;SDS011;14723;55.814;37.460;2022-11-14T16:36:48;5.82;;;1.95;;
27213;SDS011;14723;55.814;37.460;2022-11-14T16:40:22;7.55;;;1.63;;
27213;SDS011;14723;55.814;37.460;2022-11-14T16:43:47;6.63;;;2.05;;
27213;SDS011;14723;55.814;37.460;2022-11-14T16:47:11;8.63;;;2.20;;
27213;SDS011;14723;55.814;37.460;2022-11-14T16:50:36;8.13;;;1.65;;
27213;SDS011;14723;55.814;37.460;2022-11-14T16:53:59;10.15;;;3.22;;
27213;SDS011;14723;55.814;37.460;2022-11-14T16:57:26;10.70;;;2.40;;
27213;SDS011;14723;55.814;37.460;2022-11-14T17:00:50;10.60;;;2.08;;
27213;SDS011;14723;55.814;37.460;2022-11-14T17:04:14;5.05;;;1.88;;
27213;SDS011;14723;55.814;37.460;2022-11-14T17:07:38;9.00;;;2.00;;
27213;SDS011;14723;55.814;37.460;2022-11-14T17:11:06;8.07;;;1.60;;
27213;SDS011;14723;55.814;37.460;2022-11-14T17:17:56;7.45;;;1.83;;
27213;SDS011;14723;55.814;37.460;2022-11-14T17:21:20;6.65;;;1.70;;
27213;SDS011;14723;55.814;37.460;2022-11-14T17:24:46;4.85;;;1.92;;
27213;SDS011;14723;55.814;37.460;2022-11-14T17:28:09;12.40;;;2.38;;
27213;SDS011;14723;55.814;37.460;2022-11-14T17:31:33;3.38;;;1.35;;
27213;SDS011;14723;55.814;37.460;2022-11-14T17:35:04;6.90;;;2.10;;
27213;SDS011;14723;55.814;37.460;2022-11-14T17:38:30;10.20;;;4.40;;
27213;SDS011;14723;55.814;37.460;2022-11-14T17:41:53;6.60;;;2.03;;
27213;SDS011;14723;55.814;37.460;2022-11-14T17:45:17;12.27;;;2.10;;
27213;SDS011;14723;55.814;37.460;2022-11-14T17:48:41;8.50;;;2.35;;
27213;SDS011;14723;55.814;37.460;2022-11-14T17:52:08;6.53;;;1.83;;
27213;SDS011;14723;55.814;37.460;2022-11-14T17:55:32;7.53;;;2.00;;
27213;SDS011;14723;55.814;37.460;2022-11-14T17:58:55;8.00;;;2.03;;
27213;SDS011;14723;55.814;37.460;2022-11-14T18:02:19;8.27;;;2.33;;
27213;SDS011;14723;55.814;37.460;2022-11-14T18:05:43;15.63;;;2.35;;
27213;SDS011;14723;55.814;37.460;2022-11-14T18:09:10;6.57;;;2.22;;
27213;SDS011;14723;55.814;37.460;2022-11-14T18:12:34;5.95;;;2.28;;
27213;SDS011;14723;55.814;37.460;2022-11-14T18:16:01;8.82;;;2.55;;
27213;SDS011;14723;55.814;37.460;2022-11-14T18:19:25;5.97;;;2.03;;
27213;SDS011;14723;55.814;37.460;2022-11-14T18:22:49;4.30;;;1.42;;
27213;SDS011;14723;55.814;37.460;2022-11-14T18:26:15;3.45;;;1.42;;
27213;SDS011;14723;55.814;37.460;2022-11-14T18:29:40;6.38;;;1.30;;
27213;SDS011;14723;55.814;37.460;2022-11-14T18:33:04;3.13;;;1.20;;
27213;SDS011;14723;55.814;37.460;2022-11-14T18:36:29;7.78;;;1.60;;
27213;SDS011;14723;55.814;37.460;2022-11-14T18:39:53;5.95;;;1.48;;
27213;SDS011;14723;55.814;37.460;2022-11-14T18:43:19;9.85;;;1.30;;
27213;SDS011;14723;55.814;37.460;2022-11-14T18:46:43;4.90;;;1.10;;
27213;SDS011;14723;55.814;37.460;2022-11-14T18:50:07;3.72;;;1.40;;
27213;SDS011;14723;55.814;37.460;2022-11-14T18:53:31;5.20;;;1.05;;
27213;SDS011;14723;55.814;37.460;2022-11-14T18:56:55;7.95;;;1.00;;
27213;SDS011;14723;55.814;37.460;2022-11-14T19:00:22;5.35;;;1.08;;
27213;SDS011;14723;55.814;37.460;2022-11-14T19:03:46;2.83;;;1.20;;
27213;SDS011;14723;55.814;37.460;2022-11-14T19:07:10;4.72;;;1.33;;
27213;SDS011;14723;55.814;37.460;2022-11-14T19:10:35;2.63;;;0.80;;
27213;SDS011;14723;55.814;37.460;2022-11-14T19:13:59;3.80;;;1.08;;
27213;SDS011;14723;55.814;37.460;2022-11-14T19:17:26;5.13;;;0.93;;
27213;SDS011;14723;55.814;37.460;2022-11-14T19:20:56;4.80;;;1.10;;
27213;SDS011;14723;55.814;37.460;2022-11-14T19:24:20;1.88;;;1.15;;
27213;SDS011;14723;55.814;37.460;2022-11-14T19:27:48;7.00;;;2.28;;
27213;SDS011;14723;55.814;37.460;2022-11-14T19:31:12;5.40;;;1.40;;
27213;SDS011;14723;55.814;37.460;2022-11-14T19:34:39;7.30;;;0.77;;
27213;SDS011;14723;55.814;37.460;2022-11-14T19:38:04;2.85;;;0.57;;
27213;SDS011;14723;55.814;37.460;2022-11-14T19:41:28;5.82;;;0.90;;
27213;SDS011;14723;55.814;37.460;2022-11-14T19:44:52;4.20;;;0.80;;
27213;SDS011;14723;55.814;37.460;2022-11-14T19:48:16;2.25;;;0.73;;
27213;SDS011;14723;55.814;37.460;2022-11-14T19:51:43;3.67;;;0.70;;
27213;SDS011;14723;55.814;37.460;2022-11-14T19:55:07;2.15;;;0.68;;
27213;SDS011;14723;55.814;37.460;2022-11-14T19:58:31;5.13;;;0.60;;
27213;SDS011;14723;55.814;37.460;2022-11-14T20:01:57;4.47;;;2.08;;
27213;SDS011;14723;55.814;37.460;2022-11-14T20:05:21;3.45;;;0.70;;
27213;SDS011;14723;55.814;37.460;2022-11-14T20:08:47;4.32;;;0.77;;
27213;SDS011;14723;55.814;37.460;2022-11-14T20:12:11;3.42;;;0.75;;
27213;SDS011;14723;55.814;37.460;2022-11-14T20:15:35;6.75;;;1.00;;
27213;SDS011;14723;55.814;37.460;2022-11-14T20:18:59;2.05;;;1.00;;
27213;SDS011;14723;55.814;37.460;2022-11-14T20:22:23;3.15;;;0.80;;
27213;SDS011;14723;55.814;37.460;2022-11-14T20:25:52;2.63;;;1.30;;
27213;SDS011;14723;55.814;37.460;2022-11-14T20:29:17;3.08;;;0.98;;
27213;SDS011;14723;55.814;37.460;2022-11-14T20:32:41;4.55;;;1.48;;
27213;SDS011;14723;55.814;37.460;2022-11-14T20:36:05;1.35;;;0.80;;
27213;SDS011;14723;55.814;37.460;2022-11-14T20:39:29;7.25;;;1.92;;
27213;SDS011;14723;55.814;37.460;2022-11-14T20:42:55;1.90;;;0.90;;
27213;SDS011;14723;55.814;37.460;2022-11-14T20:46:20;4.32;;;0.80;;
27213;SDS011;14723;55.814;37.460;2022-11-14T20:49:43;1.58;;;1.00;;
27213;SDS011;14723;55.814;37.460;2022-11-14T20:53:07;7.03;;;1.13;;
27213;SDS011;14723;55.814;37.460;2022-11-14T20:56:31;3.90;;;0.82;;
27213;SDS011;14723;55.814;37.460;2022-11-14T20:59:58;4.07;;;0.77;;
27213;SDS011;14723;55.814;37.460;2022-11-14T21:03:22;2.28;;;0.80;;
27213;SDS011;14723;55.814;37.460;2022-11-14T21:06:45;2.95;;;0.70;;